N0308 UMKK-EPWA
Flight info
| Callsign | N0308 |
|---|---|
| Flight time | 0h 38m |
| Altitude | 31000 |
| Route | RUTAM3U RUTAM DCT REBSO DCT SOFUZ DCT ADINI DCT ERLEG |
| Aircraft | C700/M-SBDGHM1RWXY/LB2 |
Departure
| Time | 2026-05-05 10:31 |
|---|---|
| Airport | Khrabrovo Airport (UMKK) |
Arrival
| Time | 2026-05-05 11:10 |
|---|---|
| Airport | Warsaw Chopin Airport (EPWA) |
| Time | Latitude | Longitude | Altitude | Speed | Heading |
|---|---|---|---|---|---|
| 2026-05-05 10:24 | 54.89051 | 20.59393 | 28 ft | 0 kts | 66° |
| 2026-05-05 10:24 | 54.89057 | 20.59417 | 28 ft | 8 kts | 66° |
| 2026-05-05 10:24 | 54.89095 | 20.59560 | 27 ft | 18 kts | 64° |
| 2026-05-05 10:25 | 54.89165 | 20.59815 | 26 ft | 27 kts | 67° |
| 2026-05-05 10:25 | 54.89245 | 20.60143 | 24 ft | 31 kts | 65° |
| 2026-05-05 10:25 | 54.89338 | 20.60490 | 24 ft | 32 kts | 66° |
| 2026-05-05 10:25 | 54.89430 | 20.60855 | 22 ft | 34 kts | 66° |
| 2026-05-05 10:26 | 54.89528 | 20.61233 | 21 ft | 33 kts | 64° |
| 2026-05-05 10:26 | 54.89620 | 20.61585 | 20 ft | 31 kts | 67° |
| 2026-05-05 10:26 | 54.89678 | 20.61804 | 21 ft | 29 kts | 63° |
| 2026-05-05 10:26 | 54.89759 | 20.62134 | 20 ft | 8 kts | 98° |
| 2026-05-05 10:27 | 54.89730 | 20.62202 | 21 ft | 9 kts | 124° |
| 2026-05-05 10:27 | 54.89724 | 20.62259 | 19 ft | 0 kts | 71° |
| 2026-05-05 10:30 | 54.89733 | 20.62261 | 19 ft | 2 kts | 351° |
| 2026-05-05 10:30 | 54.89756 | 20.62242 | 19 ft | 7 kts | 332° |
| 2026-05-05 10:30 | 54.89762 | 20.62141 | 20 ft | 13 kts | 245° |
| 2026-05-05 10:30 | 54.89635 | 20.61658 | 22 ft | 92 kts | 247° |
| 2026-05-05 10:31 | 54.89245 | 20.60196 | 286 ft | 160 kts | 246° |
| 2026-05-05 10:31 | 54.88762 | 20.58304 | 1425 ft | 181 kts | 248° |
| 2026-05-05 10:31 | 54.88244 | 20.56191 | 2695 ft | 193 kts | 246° |
| 2026-05-05 10:31 | 54.87703 | 20.54102 | 4330 ft | 188 kts | 246° |
| 2026-05-05 10:32 | 54.87163 | 20.52024 | 5911 ft | 189 kts | 246° |
| 2026-05-05 10:32 | 54.86452 | 20.50114 | 7382 ft | 194 kts | 224° |
| 2026-05-05 10:32 | 54.85210 | 20.49105 | 8831 ft | 207 kts | 195° |
| 2026-05-05 10:32 | 54.83741 | 20.49470 | 10232 ft | 228 kts | 161° |
| 2026-05-05 10:33 | 54.82521 | 20.51485 | 11396 ft | 266 kts | 124° |
| 2026-05-05 10:33 | 54.81999 | 20.54758 | 12492 ft | 298 kts | 100° |
| 2026-05-05 10:33 | 54.81474 | 20.58369 | 13539 ft | 321 kts | 117° |
| 2026-05-05 10:33 | 54.80255 | 20.61734 | 14556 ft | 339 kts | 135° |
| 2026-05-05 10:34 | 54.78472 | 20.64367 | 16059 ft | 336 kts | 153° |
| 2026-05-05 10:34 | 54.76339 | 20.65973 | 17530 ft | 335 kts | 171° |
| 2026-05-05 10:34 | 54.74038 | 20.66426 | 18860 ft | 333 kts | 187° |
| 2026-05-05 10:34 | 54.71707 | 20.66192 | 20034 ft | 338 kts | 189° |
| 2026-05-05 10:35 | 54.69335 | 20.65906 | 21120 ft | 344 kts | 189° |
| 2026-05-05 10:35 | 54.66925 | 20.65595 | 22211 ft | 350 kts | 189° |
| 2026-05-05 10:35 | 54.64473 | 20.65294 | 23299 ft | 356 kts | 189° |
| 2026-05-05 10:35 | 54.61968 | 20.65081 | 24206 ft | 365 kts | 185° |
| 2026-05-05 10:36 | 54.59409 | 20.65441 | 25103 ft | 373 kts | 179° |
| 2026-05-05 10:36 | 54.56812 | 20.65902 | 25988 ft | 377 kts | 180° |
| 2026-05-05 10:36 | 54.54183 | 20.66334 | 26832 ft | 382 kts | 180° |
| 2026-05-05 10:36 | 54.51554 | 20.66770 | 27628 ft | 387 kts | 180° |
| 2026-05-05 10:37 | 54.48853 | 20.67234 | 28479 ft | 392 kts | 180° |
| 2026-05-05 10:37 | 54.46120 | 20.67702 | 29300 ft | 397 kts | 180° |
| 2026-05-05 10:37 | 54.43349 | 20.68169 | 30071 ft | 402 kts | 180° |
| 2026-05-05 10:37 | 54.40554 | 20.68638 | 30752 ft | 406 kts | 180° |
| 2026-05-05 10:38 | 54.37691 | 20.69116 | 30904 ft | 424 kts | 180° |
| 2026-05-05 10:38 | 54.34689 | 20.69615 | 30910 ft | 443 kts | 179° |
| 2026-05-05 10:38 | 54.31550 | 20.70146 | 30922 ft | 461 kts | 179° |
| 2026-05-05 10:38 | 54.28300 | 20.70699 | 30917 ft | 475 kts | 179° |
| 2026-05-05 10:39 | 54.21694 | 20.71814 | 30918 ft | 475 kts | 179° |
| 2026-05-05 10:39 | 54.15142 | 20.72904 | 30902 ft | 471 kts | 179° |
| 2026-05-05 10:40 | 54.08611 | 20.73989 | 30909 ft | 473 kts | 179° |
| 2026-05-05 10:40 | 54.02087 | 20.75073 | 30905 ft | 475 kts | 179° |
| 2026-05-05 10:41 | 53.95499 | 20.76161 | 30896 ft | 475 kts | 179° |
| 2026-05-05 10:41 | 53.88919 | 20.77248 | 30900 ft | 475 kts | 179° |
| 2026-05-05 10:42 | 53.79069 | 20.78864 | 30898 ft | 474 kts | 179° |
| 2026-05-05 10:43 | 53.72507 | 20.79937 | 30899 ft | 474 kts | 179° |
| 2026-05-05 10:43 | 53.65942 | 20.81007 | 30901 ft | 473 kts | 179° |
| 2026-05-05 10:44 | 53.59391 | 20.82072 | 30902 ft | 473 kts | 179° |
| 2026-05-05 10:44 | 53.52840 | 20.83133 | 30904 ft | 473 kts | 179° |
| 2026-05-05 10:45 | 53.46285 | 20.84192 | 30905 ft | 473 kts | 179° |
| 2026-05-05 10:45 | 53.39731 | 20.85247 | 30881 ft | 473 kts | 178° |
| 2026-05-05 10:46 | 53.33178 | 20.86298 | 30880 ft | 472 kts | 178° |
| 2026-05-05 10:46 | 53.26683 | 20.87339 | 30876 ft | 472 kts | 178° |
| 2026-05-05 10:47 | 53.20142 | 20.88382 | 30867 ft | 473 kts | 178° |
| 2026-05-05 10:47 | 53.13523 | 20.89432 | 30877 ft | 480 kts | 178° |
| 2026-05-05 10:47 | 53.10211 | 20.89961 | 30868 ft | 469 kts | 178° |
| 2026-05-05 10:48 | 53.07070 | 20.90473 | 30031 ft | 445 kts | 178° |
| 2026-05-05 10:48 | 53.03969 | 20.90955 | 28330 ft | 446 kts | 178° |
| 2026-05-05 10:48 | 53.00925 | 20.91424 | 27094 ft | 433 kts | 178° |
| 2026-05-05 10:48 | 52.97947 | 20.91898 | 25805 ft | 426 kts | 178° |
| 2026-05-05 10:49 | 52.95021 | 20.92366 | 24598 ft | 419 kts | 178° |
| 2026-05-05 10:49 | 52.92144 | 20.92816 | 23419 ft | 412 kts | 178° |
| 2026-05-05 10:49 | 52.89311 | 20.93258 | 22099 ft | 405 kts | 178° |
| 2026-05-05 10:49 | 52.86529 | 20.93695 | 20843 ft | 397 kts | 178° |
| 2026-05-05 10:50 | 52.83802 | 20.94125 | 19664 ft | 390 kts | 178° |
| 2026-05-05 10:50 | 52.81122 | 20.94545 | 18529 ft | 384 kts | 178° |
| 2026-05-05 10:50 | 52.78484 | 20.94955 | 17333 ft | 377 kts | 179° |
| 2026-05-05 10:50 | 52.75899 | 20.95359 | 16208 ft | 369 kts | 179° |
| 2026-05-05 10:51 | 52.73375 | 20.95753 | 15127 ft | 361 kts | 179° |
| 2026-05-05 10:51 | 52.70897 | 20.96139 | 14087 ft | 353 kts | 179° |
| 2026-05-05 10:51 | 52.68475 | 20.96516 | 12986 ft | 346 kts | 179° |
| 2026-05-05 10:51 | 52.66093 | 20.96884 | 11840 ft | 342 kts | 178° |
| 2026-05-05 10:52 | 52.63740 | 20.97248 | 10739 ft | 338 kts | 178° |
| 2026-05-05 10:52 | 52.61413 | 20.97608 | 9902 ft | 329 kts | 177° |
| 2026-05-05 10:52 | 52.59244 | 20.97952 | 9860 ft | 298 kts | 178° |
| 2026-05-05 10:52 | 52.57269 | 20.98262 | 9851 ft | 274 kts | 178° |
| 2026-05-05 10:53 | 52.55419 | 20.98542 | 9844 ft | 263 kts | 178° |
| 2026-05-05 10:53 | 52.53575 | 20.98819 | 9854 ft | 273 kts | 178° |
| 2026-05-05 10:53 | 52.51648 | 20.99110 | 9865 ft | 281 kts | 178° |
| 2026-05-05 10:53 | 52.49709 | 20.99417 | 9867 ft | 279 kts | 178° |
| 2026-05-05 10:54 | 52.47811 | 20.99713 | 9867 ft | 276 kts | 178° |
| 2026-05-05 10:54 | 52.45903 | 21.00004 | 9862 ft | 274 kts | 178° |
| 2026-05-05 10:54 | 52.44007 | 21.00294 | 9862 ft | 273 kts | 178° |
| 2026-05-05 10:54 | 52.42108 | 21.00586 | 9859 ft | 275 kts | 178° |
| 2026-05-05 10:55 | 52.40198 | 21.00878 | 9861 ft | 276 kts | 178° |
| 2026-05-05 10:55 | 52.38280 | 21.01174 | 9864 ft | 278 kts | 178° |
| 2026-05-05 10:55 | 52.36382 | 21.01469 | 9538 ft | 272 kts | 178° |
| 2026-05-05 10:55 | 52.34482 | 21.01757 | 8926 ft | 270 kts | 177° |
| 2026-05-05 10:56 | 52.32689 | 21.02036 | 8896 ft | 249 kts | 177° |
| 2026-05-05 10:56 | 52.30985 | 21.02295 | 8250 ft | 246 kts | 177° |
| 2026-05-05 10:56 | 52.29273 | 21.02552 | 7575 ft | 245 kts | 177° |
| 2026-05-05 10:56 | 52.27588 | 21.02887 | 6904 ft | 245 kts | 171° |
| 2026-05-05 10:57 | 52.25989 | 21.03836 | 6292 ft | 246 kts | 156° |
| 2026-05-05 10:57 | 52.24488 | 21.05153 | 5659 ft | 244 kts | 154° |
| 2026-05-05 10:57 | 52.22995 | 21.06447 | 4979 ft | 242 kts | 154° |
| 2026-05-05 10:57 | 52.21510 | 21.07721 | 4387 ft | 239 kts | 154° |
| 2026-05-05 10:58 | 52.20054 | 21.08984 | 4009 ft | 229 kts | 153° |
| 2026-05-05 10:58 | 52.18680 | 21.10181 | 4005 ft | 225 kts | 154° |
| 2026-05-05 10:58 | 52.17253 | 21.11391 | 4014 ft | 237 kts | 153° |
| 2026-05-05 10:58 | 52.15768 | 21.12653 | 4006 ft | 242 kts | 154° |
| 2026-05-05 10:59 | 52.14283 | 21.13939 | 4002 ft | 240 kts | 153° |
| 2026-05-05 10:59 | 52.12845 | 21.15217 | 3995 ft | 238 kts | 153° |
| 2026-05-05 10:59 | 52.11389 | 21.16496 | 4004 ft | 238 kts | 154° |
| 2026-05-05 10:59 | 52.09925 | 21.17779 | 3990 ft | 239 kts | 154° |
| 2026-05-05 11:00 | 52.08462 | 21.19060 | 3994 ft | 239 kts | 153° |
| 2026-05-05 11:00 | 52.06994 | 21.20340 | 3994 ft | 238 kts | 154° |
| 2026-05-05 11:00 | 52.05530 | 21.21607 | 3999 ft | 239 kts | 155° |
| 2026-05-05 11:00 | 52.04057 | 21.22902 | 3998 ft | 242 kts | 154° |
| 2026-05-05 11:01 | 52.02570 | 21.24198 | 4012 ft | 244 kts | 154° |
| 2026-05-05 11:01 | 52.01072 | 21.25494 | 4006 ft | 243 kts | 155° |
| 2026-05-05 11:01 | 51.99482 | 21.26216 | 3981 ft | 237 kts | 184° |
| 2026-05-05 11:01 | 51.97900 | 21.25624 | 4000 ft | 233 kts | 198° |
| 2026-05-05 11:02 | 51.96360 | 21.24841 | 3999 ft | 231 kts | 198° |
| 2026-05-05 11:02 | 51.94815 | 21.24067 | 4009 ft | 235 kts | 198° |
| 2026-05-05 11:02 | 51.93244 | 21.23308 | 3994 ft | 234 kts | 198° |
| 2026-05-05 11:02 | 51.91845 | 21.22125 | 3974 ft | 225 kts | 224° |
| 2026-05-05 11:03 | 51.91050 | 21.19992 | 3977 ft | 223 kts | 252° |
| 2026-05-05 11:03 | 51.91029 | 21.17502 | 3874 ft | 222 kts | 279° |
| 2026-05-05 11:03 | 51.91818 | 21.15312 | 3384 ft | 232 kts | 312° |
| 2026-05-05 11:03 | 51.93239 | 21.14131 | 2992 ft | 233 kts | 349° |
| 2026-05-05 11:04 | 51.94790 | 21.13958 | 2994 ft | 216 kts | 356° |
| 2026-05-05 11:04 | 51.96251 | 21.13836 | 2981 ft | 204 kts | 353° |
| 2026-05-05 11:04 | 51.97546 | 21.13266 | 2993 ft | 191 kts | 330° |
| 2026-05-05 11:04 | 51.98712 | 21.12236 | 2993 ft | 191 kts | 329° |
| 2026-05-05 11:05 | 51.99896 | 21.11205 | 3015 ft | 195 kts | 329° |
| 2026-05-05 11:05 | 52.01114 | 21.10155 | 2981 ft | 199 kts | 328° |
| 2026-05-05 11:05 | 52.02329 | 21.09137 | 2989 ft | 194 kts | 330° |
| 2026-05-05 11:05 | 52.03358 | 21.08273 | 3199 ft | 151 kts | 327° |
| 2026-05-05 11:06 | 52.04338 | 21.07360 | 2859 ft | 168 kts | 326° |
| 2026-05-05 11:06 | 52.05371 | 21.06462 | 2569 ft | 164 kts | 329° |
| 2026-05-05 11:06 | 52.06337 | 21.05650 | 2330 ft | 148 kts | 327° |
| 2026-05-05 11:06 | 52.07200 | 21.04897 | 2097 ft | 137 kts | 329° |
| 2026-05-05 11:07 | 52.08000 | 21.04181 | 1955 ft | 125 kts | 325° |
| 2026-05-05 11:07 | 52.08769 | 21.03512 | 1823 ft | 125 kts | 331° |
| 2026-05-05 11:07 | 52.09512 | 21.02885 | 1642 ft | 116 kts | 325° |
| 2026-05-05 11:07 | 52.10247 | 21.02215 | 1510 ft | 128 kts | 331° |
| 2026-05-05 11:08 | 52.11065 | 21.01512 | 1365 ft | 135 kts | 330° |
| 2026-05-05 11:08 | 52.11881 | 21.00807 | 1158 ft | 130 kts | 332° |
| 2026-05-05 11:08 | 52.12676 | 21.00093 | 1007 ft | 133 kts | 328° |
| 2026-05-05 11:08 | 52.13491 | 20.99359 | 829 ft | 131 kts | 333° |
| 2026-05-05 11:09 | 52.14280 | 20.98742 | 661 ft | 122 kts | 328° |
| 2026-05-05 11:09 | 52.15023 | 20.98055 | 513 ft | 127 kts | 329° |
| 2026-05-05 11:09 | 52.15827 | 20.97378 | 358 ft | 128 kts | 328° |
| 2026-05-05 11:09 | 52.16460 | 20.96804 | 349 ft | 66 kts | 333° |
| 2026-05-05 11:10 | 52.16727 | 20.96582 | 347 ft | 39 kts | 336° |
| 2026-05-05 11:10 | 52.16958 | 20.96516 | 349 ft | 12 kts | 2° |
| 2026-05-05 11:10 | 52.17013 | 20.96519 | 345 ft | 0 kts | 2° |
| 2026-05-05 11:11 | 52.17016 | 20.96520 | 353 ft | 3 kts | 3° |
| 2026-05-05 11:11 | 52.17068 | 20.96536 | 346 ft | 12 kts | 28° |
| 2026-05-05 11:11 | 52.17150 | 20.96603 | 348 ft | 15 kts | 348° |
| 2026-05-05 11:11 | 52.17251 | 20.96521 | 348 ft | 15 kts | 330° |
| 2026-05-05 11:12 | 52.17350 | 20.96432 | 346 ft | 12 kts | 333° |
| 2026-05-05 11:12 | 52.17431 | 20.96363 | 346 ft | 15 kts | 332° |
| 2026-05-05 11:12 | 52.17536 | 20.96270 | 346 ft | 19 kts | 331° |
| 2026-05-05 11:12 | 52.17663 | 20.96157 | 347 ft | 23 kts | 331° |
| 2026-05-05 11:13 | 52.17788 | 20.96102 | 347 ft | 17 kts | 40° |
| 2026-05-05 11:13 | 52.17828 | 20.96219 | 351 ft | 17 kts | 63° |
| 2026-05-05 11:13 | 52.17893 | 20.96285 | 346 ft | 8 kts | 309° |
| 2026-05-05 11:13 | 52.17905 | 20.96270 | 349 ft | 0 kts | 330° |